Terminal Aerodrome Forecast
Issued by NWS

Home | Current Version | Previous Version | Text Only | Print | Product List | Glossary Off
Versions: 1 2 3 4 5 6 7 8 9 10 11 12 13 14 15 16 17 18 19 20

000
FTUS43 KTOP 290520
TAFMHK
TAF
KMHK 290520Z 2906/3006 19014KT P6SM BKN250 WS020/20050KT
      TEMPO 2906/2908 VRB13G22KT -TSRA BKN060CB
     FM291100 19014KT P6SM VCTS BKN080CB WS020/21050KT
     FM291200 19013KT P6SM VCTS BKN080CB
     FM291400 19012G20KT P6SM BKN150
     FM292200 18011KT P6SM VCTS BKN060CB=

USA.gov is the U.S. government's official web portal to all federal, state and local government web resources and services.